Terminal Aerodrome Forecast
Issued by NWS

Home | Current Version | Previous Version | Text Only | Print | Product List | Glossary On
Versions: 1 2 3 4 5 6 7 8 9 10 11 12 13 14 15
000
FTUS46 KPDT 211140
TAFPSC
TAF
KPSC 211140Z 2112/2212 VRB05KT P6SM FEW080 BKN200
     FM211500 21010KT P6SM SCT080 OVC100
     FM212000 22014G22KT P6SM -RA SCT035 OVC050
     FM220300 19008G15KT P6SM VCSH SCT030 OVC045=

USA.gov is the U.S. government's official web portal to all federal, state and local government web resources and services.